Time;durP1;ratioP1;P1;durP2;ratioP2;P2;SDS_P1;SDS_P2;PMS_P1;PMS_P2;Temp;Humidity;BMP_temperature;BMP_pressure;BME280_temperature;BME280_humidity;BME280_pressure;Samples;Min_cycle;Max_cycle;Signal;HPM_P1;HPM_P2
2022/05/18 00:01:02;;;;;;;;;15.20;12.20;;;;;;;;5037204;28;8766;-64
2022/05/18 00:03:31;;;;;;;;;16.80;16.00;;;;;;;;5018488;28;9448;-64
2022/05/18 00:05:59;;;;;;;;;15.40;14.40;;;;;;;;5036648;28;8874;-63
2022/05/18 00:08:26;;;;;;;;;16.40;14.60;;;;;;;;5036222;28;8777;-64
2022/05/18 00:10:53;;;;;;;;;21.20;17.40;;;;;;;;5036489;28;8762;-64
2022/05/18 00:13:19;;;;;;;;;15.40;14.20;;;;;;;;5036997;28;8800;-64
2022/05/18 00:15:46;;;;;;;;;17.40;16.20;;;;;;;;5036362;28;8956;-63
2022/05/18 00:18:13;;;;;;;;;17.80;15.00;;;;;;;;5036856;28;8773;-64
2022/05/18 00:20:43;;;;;;;;;19.00;17.00;;;;;;;;5036497;28;8809;-64
2022/05/18 00:23:10;;;;;;;;;16.20;14.60;;;;;;;;5036066;28;8776;-64
2022/05/18 00:25:40;;;;;;;;;15.80;15.80;;;;;;;;5035969;28;8777;-63
2022/05/18 00:28:06;;;;;;;;;15.60;15.60;;;;;;;;5035282;28;8786;-63
2022/05/18 00:30:33;;;;;;;;;18.80;17.20;;;;;;;;5036074;28;8786;-63
2022/05/18 00:33:04;;;;;;;;;21.60;18.60;;;;;;;;5034467;28;8789;-63
2022/05/18 00:35:32;;;;;;;;;21.00;19.00;;;;;;;;5018615;28;8784;-63
2022/05/18 00:37:58;;;;;;;;;20.75;20.75;;;;;;;;5034630;28;8875;-63
2022/05/18 00:40:25;;;;;;;;;19.60;18.00;;;;;;;;5017492;28;8781;-60
2022/05/18 00:42:52;;;;;;;;;20.60;19.20;;;;;;;;5035899;28;8773;-64
2022/05/18 00:45:19;;;;;;;;;17.40;14.40;;;;;;;;5034330;28;8897;-63
2022/05/18 00:47:45;;;;;;;;;19.60;18.60;;;;;;;;5034857;28;8828;-63
2022/05/18 00:50:18;;;;;;;;;19.00;18.00;;;;;;;;5034298;28;8765;-64
2022/05/18 00:52:46;;;;;;;;;16.40;16.00;;;;;;;;5018010;28;8820;-64
2022/05/18 00:55:14;;;;;;;;;25.40;20.20;;;;;;;;5036173;28;8769;-64
2022/05/18 00:57:46;;;;;;;;;17.80;17.80;;;;;;;;5018146;28;8817;-66
2022/05/18 01:00:14;;;;;;;;;21.40;19.40;;;;;;;;5035536;28;8816;-66
2022/05/18 01:02:42;;;;;;;;;19.80;16.60;;;;;;;;5035352;28;8786;-63
2022/05/18 01:05:09;;;;;;;;;17.60;17.00;;;;;;;;5017642;28;8766;-62
2022/05/18 01:07:39;;;;;;;;;17.00;15.80;;;;;;;;5033658;28;8793;-62
2022/05/18 01:10:07;;;;;;;;;18.00;15.00;;;;;;;;5019595;28;8749;-63
2022/05/18 01:12:33;;;;;;;;;16.40;15.40;;;;;;;;5038553;28;8856;-61
2022/05/18 01:15:07;;;;;;;;;17.00;13.20;;;;;;;;5020955;28;9451;-63
2022/05/18 01:17:38;;;;;;;;;14.60;13.00;;;;;;;;5038722;28;8947;-63
2022/05/18 01:20:06;;;;;;;;;16.00;16.00;;;;;;;;5021198;28;8781;-64
2022/05/18 01:22:48;;;;;;;;;17.60;14.60;;;;;;;;5020950;28;8753;-63
2022/05/18 01:25:33;;;;;;;;;13.60;12.00;;;;;;;;5039348;28;8767;-63
2022/05/18 01:28:00;;;;;;;;;14.60;11.60;;;;;;;;5039027;28;8805;-63
2022/05/18 01:30:27;;;;;;;;;10.40;8.40;;;;;;;;5020671;28;8761;-62
2022/05/18 01:32:54;;;;;;;;;10.80;8.00;;;;;;;;5038163;28;8858;-65
2022/05/18 01:35:22;;;;;;;;;8.40;7.20;;;;;;;;5038250;28;9013;-63
2022/05/18 01:37:49;;;;;;;;;13.40;8.20;;;;;;;;5038437;28;8750;-64
2022/05/18 01:40:24;;;;;;;;;10.80;8.60;;;;;;;;5038010;28;8785;-64
2022/05/18 01:42:53;;;;;;;;;14.20;13.20;;;;;;;;5018048;28;8750;-64
2022/05/18 01:45:20;;;;;;;;;7.60;7.20;;;;;;;;5019058;28;8907;-62
2022/05/18 01:47:48;;;;;;;;;4.40;4.40;;;;;;;;5037887;28;8816;-64
2022/05/18 01:50:15;;;;;;;;;9.40;9.20;;;;;;;;5036812;28;8839;-66
2022/05/18 01:52:42;;;;;;;;;9.00;9.00;;;;;;;;5037987;28;8892;-64
2022/05/18 01:55:09;;;;;;;;;10.60;9.40;;;;;;;;5038929;28;8859;-63
2022/05/18 01:57:36;;;;;;;;;4.80;4.80;;;;;;;;5037522;28;8931;-61
2022/05/18 02:00:05;;;;;;;;;13.60;8.60;;;;;;;;5037459;28;8919;-62
2022/05/18 02:02:31;;;;;;;;;9.20;9.20;;;;;;;;5037115;28;8793;-63
2022/05/18 02:04:58;;;;;;;;;7.60;5.40;;;;;;;;5036541;28;8781;-63
2022/05/18 02:07:25;;;;;;;;;12.00;12.00;;;;;;;;5036921;28;9602;-61
2022/05/18 02:09:51;;;;;;;;;9.40;7.80;;;;;;;;5038073;28;8831;-64
2022/05/18 02:12:18;;;;;;;;;4.00;2.20;;;;;;;;5037409;28;8785;-62
2022/05/18 02:14:45;;;;;;;;;5.00;5.00;;;;;;;;5019390;28;8769;-63
2022/05/18 02:17:12;;;;;;;;;4.80;3.40;;;;;;;;5037641;28;8776;-64
2022/05/18 02:19:38;;;;;;;;;3.00;3.00;;;;;;;;5036865;28;9332;-68
2022/05/18 02:22:05;;;;;;;;;4.80;3.80;;;;;;;;5037160;28;9436;-63
2022/05/18 02:24:32;;;;;;;;;3.80;2.80;;;;;;;;5019329;28;8825;-62
2022/05/18 02:26:59;;;;;;;;;3.00;3.00;;;;;;;;5018344;28;8745;-62
2022/05/18 02:29:26;;;;;;;;;2.80;2.80;;;;;;;;5035080;28;8828;-62
2022/05/18 02:31:52;;;;;;;;;3.80;3.80;;;;;;;;5036029;28;8777;-62
2022/05/18 02:34:20;;;;;;;;;3.00;3.00;;;;;;;;5036870;28;8753;-62
2022/05/18 02:36:48;;;;;;;;;5.00;3.40;;;;;;;;5036192;28;9390;-62
2022/05/18 02:39:15;;;;;;;;;5.40;2.00;;;;;;;;5035466;28;8753;-62
2022/05/18 02:41:44;;;;;;;;;3.20;3.20;;;;;;;;5033464;28;8757;-62
2022/05/18 02:44:11;;;;;;;;;5.00;3.20;;;;;;;;5036657;28;8819;-62
2022/05/18 02:46:37;;;;;;;;;7.40;4.40;;;;;;;;5001650;28;8918;-62
2022/05/18 02:49:04;;;;;;;;;4.60;4.60;;;;;;;;5036223;28;8765;-63
2022/05/18 02:51:31;;;;;;;;;4.00;4.00;;;;;;;;5018995;28;8745;-63
2022/05/18 02:53:58;;;;;;;;;4.20;4.20;;;;;;;;5018549;28;8745;-63
2022/05/18 02:56:25;;;;;;;;;3.60;3.60;;;;;;;;5007989;28;8766;-62
2022/05/18 02:58:53;;;;;;;;;3.00;3.00;;;;;;;;5035405;28;9399;-63
2022/05/18 03:01:28;;;;;;;;;4.00;4.00;;;;;;;;5036752;28;8778;-62
2022/05/18 03:03:55;;;;;;;;;5.00;4.80;;;;;;;;5036919;28;8753;-63
2022/05/18 03:06:23;;;;;;;;;2.60;2.60;;;;;;;;5036179;28;8730;-65
2022/05/18 03:08:50;;;;;;;;;8.20;5.20;;;;;;;;5036212;28;8808;-63
2022/05/18 03:11:18;;;;;;;;;5.60;5.20;;;;;;;;5036280;28;8805;-62
2022/05/18 03:13:45;;;;;;;;;8.60;6.00;;;;;;;;5036799;28;8821;-66
2022/05/18 03:16:11;;;;;;;;;5.20;4.80;;;;;;;;5036952;28;8742;-63
2022/05/18 03:18:38;;;;;;;;;5.40;4.80;;;;;;;;5035021;28;8813;-62
2022/05/18 03:23:50;;;;;;;;;4.60;3.40;;;;;;;;5020342;28;8805;-64
2022/05/18 03:26:17;;;;;;;;;3.00;3.00;;;;;;;;5017730;28;8765;-63
2022/05/18 03:28:45;;;;;;;;;6.80;5.00;;;;;;;;5017769;28;9541;-63
2022/05/18 03:31:12;;;;;;;;;4.20;3.80;;;;;;;;5036798;28;8754;-63
2022/05/18 03:33:38;;;;;;;;;5.20;4.00;;;;;;;;5035203;28;8817;-62
2022/05/18 03:36:06;;;;;;;;;4.80;4.40;;;;;;;;5035000;28;8793;-63
2022/05/18 03:38:32;;;;;;;;;4.60;3.00;;;;;;;;5018151;28;8802;-63
2022/05/18 03:40:59;;;;;;;;;1.40;1.40;;;;;;;;5034949;28;8785;-64
2022/05/18 03:43:26;;;;;;;;;5.80;4.60;;;;;;;;5036145;28;8745;-63
2022/05/18 03:45:53;;;;;;;;;2.40;2.40;;;;;;;;5019191;28;8761;-63
2022/05/18 03:48:20;;;;;;;;;5.40;4.00;;;;;;;;5035387;28;8845;-64
2022/05/18 03:50:47;;;;;;;;;5.00;4.80;;;;;;;;5036413;28;8765;-66
2022/05/18 03:53:14;;;;;;;;;4.00;4.00;;;;;;;;5018953;28;8838;-64
2022/05/18 03:55:43;;;;;;;;;4.60;4.60;;;;;;;;5001753;28;8765;-63
2022/05/18 03:58:13;;;;;;;;;3.80;3.80;;;;;;;;5036811;28;8785;-62
2022/05/18 04:00:40;;;;;;;;;2.40;2.40;;;;;;;;5006797;28;8785;-63
2022/05/18 04:03:08;;;;;;;;;6.00;6.00;;;;;;;;5017793;28;8777;-62
2022/05/18 04:05:37;;;;;;;;;6.40;5.80;;;;;;;;5018121;28;8785;-64
2022/05/18 04:08:03;;;;;;;;;4.40;4.20;;;;;;;;5017686;28;8983;-63
2022/05/18 04:10:30;;;;;;;;;4.00;4.00;;;;;;;;5017680;28;8893;-63
2022/05/18 04:12:57;;;;;;;;;5.00;5.00;;;;;;;;5036441;28;8834;-63
2022/05/18 04:15:24;;;;;;;;;5.00;4.60;;;;;;;;5017561;28;8852;-63
2022/05/18 04:17:51;;;;;;;;;4.20;4.20;;;;;;;;5035551;28;8773;-63
2022/05/18 04:20:21;;;;;;;;;4.60;4.60;;;;;;;;5035190;28;8805;-62
2022/05/18 04:22:48;;;;;;;;;6.60;6.40;;;;;;;;5017988;28;8762;-64
2022/05/18 04:25:16;;;;;;;;;2.80;2.80;;;;;;;;5036377;28;8762;-63
2022/05/18 04:27:43;;;;;;;;;4.60;3.60;;;;;;;;5016603;28;8912;-66
2022/05/18 04:30:11;;;;;;;;;7.60;7.00;;;;;;;;5034925;28;9406;-64
2022/05/18 04:32:40;;;;;;;;;5.40;4.80;;;;;;;;5030671;28;8808;-63
2022/05/18 04:35:08;;;;;;;;;4.80;4.80;;;;;;;;5031729;28;9080;-63
2022/05/18 04:37:36;;;;;;;;;6.00;6.00;;;;;;;;5031824;28;8786;-67
2022/05/18 04:40:03;;;;;;;;;6.00;5.00;;;;;;;;5031259;28;8758;-64
2022/05/18 04:42:30;;;;;;;;;9.40;8.00;;;;;;;;5032179;28;8745;-64
2022/05/18 04:44:56;;;;;;;;;1.60;1.40;;;;;;;;5015943;28;8769;-64
2022/05/18 04:47:24;;;;;;;;;7.80;7.80;;;;;;;;5018947;28;8773;-63
2022/05/18 04:49:51;;;;;;;;;8.20;7.60;;;;;;;;5036140;28;8781;-64
2022/05/18 04:52:21;;;;;;;;;5.00;4.80;;;;;;;;5019131;28;8790;-64
2022/05/18 04:54:48;;;;;;;;;7.00;3.80;;;;;;;;5035738;28;8908;-63
2022/05/18 04:57:15;;;;;;;;;5.20;5.20;;;;;;;;5016246;28;8931;-63
2022/05/18 04:59:42;;;;;;;;;4.20;3.00;;;;;;;;5016337;28;8752;-63
2022/05/18 05:02:12;;;;;;;;;4.60;3.60;;;;;;;;4999246;28;8784;-64
2022/05/18 05:04:39;;;;;;;;;4.20;3.00;;;;;;;;5015595;28;9448;-63
2022/05/18 05:07:06;;;;;;;;;3.60;2.40;;;;;;;;5016832;28;8756;-63
2022/05/18 05:09:33;;;;;;;;;6.60;5.80;;;;;;;;5016164;28;8760;-63
2022/05/18 05:12:00;;;;;;;;;4.20;4.00;;;;;;;;5033116;28;8757;-64
2022/05/18 05:14:27;;;;;;;;;3.80;3.80;;;;;;;;5034691;28;8761;-63
2022/05/18 05:16:54;;;;;;;;;5.00;4.00;;;;;;;;5034595;28;8888;-64
2022/05/18 05:19:21;;;;;;;;;6.40;6.00;;;;;;;;5035676;28;8768;-63
2022/05/18 05:21:48;;;;;;;;;5.00;5.00;;;;;;;;5025636;28;8792;-64
2022/05/18 05:24:15;;;;;;;;;5.00;5.00;;;;;;;;5035073;28;8734;-64
2022/05/18 05:26:42;;;;;;;;;4.60;3.00;;;;;;;;5017679;28;8775;-64
2022/05/18 05:29:12;;;;;;;;;6.40;5.40;;;;;;;;5034501;28;8836;-64
2022/05/18 05:31:38;;;;;;;;;4.80;4.80;;;;;;;;5035970;28;8749;-64
2022/05/18 05:34:05;;;;;;;;;5.40;5.40;;;;;;;;5018971;28;8769;-63
2022/05/18 05:36:33;;;;;;;;;6.00;6.00;;;;;;;;5035163;28;8773;-63
2022/05/18 05:38:59;;;;;;;;;6.00;6.00;;;;;;;;5035318;28;8815;-64
2022/05/18 05:41:27;;;;;;;;;4.00;3.60;;;;;;;;5035529;28;8770;-63
2022/05/18 05:43:57;;;;;;;;;3.80;3.80;;;;;;;;5035962;28;8876;-63
2022/05/18 05:46:27;;;;;;;;;6.20;5.00;;;;;;;;5035683;28;8761;-63
2022/05/18 05:48:54;;;;;;;;;7.00;5.20;;;;;;;;5036156;28;8805;-64
2022/05/18 05:51:23;;;;;;;;;6.80;5.00;;;;;;;;5017227;28;8789;-64
2022/05/18 05:53:53;;;;;;;;;4.80;4.80;;;;;;;;5034875;28;8789;-63
2022/05/18 05:56:20;;;;;;;;;4.60;4.60;;;;;;;;5033464;28;8793;-64
2022/05/18 05:58:48;;;;;;;;;6.00;6.00;;;;;;;;5035742;28;9455;-64
2022/05/18 06:01:15;;;;;;;;;5.40;5.40;;;;;;;;5013970;28;8833;-64
2022/05/18 06:03:42;;;;;;;;;6.40;5.80;;;;;;;;5030292;28;8767;-63
2022/05/18 06:06:11;;;;;;;;;7.00;5.00;;;;;;;;5014801;28;8791;-64
2022/05/18 06:08:38;;;;;;;;;5.00;5.00;;;;;;;;5014420;28;8806;-63
2022/05/18 06:11:05;;;;;;;;;6.60;5.20;;;;;;;;5022110;28;8761;-64
2022/05/18 06:13:32;;;;;;;;;7.80;7.00;;;;;;;;4996616;28;8757;-63
2022/05/18 06:16:00;;;;;;;;;5.00;5.00;;;;;;;;4997246;28;8777;-64
2022/05/18 06:18:26;;;;;;;;;4.00;4.00;;;;;;;;4998241;28;8856;-63
2022/05/18 06:20:53;;;;;;;;;5.00;4.00;;;;;;;;4998045;28;8800;-64
2022/05/18 06:23:20;;;;;;;;;5.80;5.80;;;;;;;;4996963;28;8793;-63
2022/05/18 06:25:47;;;;;;;;;5.00;5.00;;;;;;;;5004700;28;8789;-64
2022/05/18 06:28:13;;;;;;;;;4.00;4.00;;;;;;;;5018866;28;8774;-64
2022/05/18 06:30:41;;;;;;;;;4.60;4.00;;;;;;;;5032318;28;8767;-64
2022/05/18 06:33:09;;;;;;;;;4.00;3.40;;;;;;;;5017145;28;9066;-64
2022/05/18 06:35:36;;;;;;;;;5.80;5.00;;;;;;;;5016131;28;8767;-64
2022/05/18 06:38:13;;;;;;;;;4.00;4.00;;;;;;;;5016660;28;8794;-64
2022/05/18 06:43:25;;;;;;;;;5.80;4.20;;;;;;;;4998150;28;8770;-63
2022/05/18 06:45:52;;;;;;;;;5.00;5.00;;;;;;;;5014075;28;8756;-64
2022/05/18 06:48:25;;;;;;;;;6.00;5.00;;;;;;;;5013146;28;8809;-63
2022/05/18 06:50:52;;;;;;;;;5.20;5.00;;;;;;;;4998224;28;8765;-63
2022/05/18 06:53:19;;;;;;;;;5.60;5.20;;;;;;;;4998197;28;8774;-63
2022/05/18 06:55:49;;;;;;;;;4.00;4.00;;;;;;;;5005459;28;8817;-64
2022/05/18 06:58:16;;;;;;;;;8.80;7.20;;;;;;;;5016718;28;8844;-64
2022/05/18 07:00:43;;;;;;;;;7.00;5.00;;;;;;;;5016638;28;8805;-63
2022/05/18 07:03:10;;;;;;;;;6.80;6.20;;;;;;;;5017082;28;8767;-64
2022/05/18 07:05:38;;;;;;;;;7.80;5.00;;;;;;;;5017502;28;8779;-64
2022/05/18 07:08:05;;;;;;;;;6.20;6.00;;;;;;;;5017304;28;8860;-64
2022/05/18 07:10:32;;;;;;;;;3.60;3.40;;;;;;;;5016443;28;8853;-63
2022/05/18 07:12:58;;;;;;;;;5.60;5.60;;;;;;;;5017834;28;8767;-64
2022/05/18 07:15:25;;;;;;;;;2.00;2.00;;;;;;;;5017469;28;8789;-63
2022/05/18 07:17:52;;;;;;;;;4.60;4.60;;;;;;;;5016042;28;9443;-64
2022/05/18 07:20:19;;;;;;;;;4.80;4.00;;;;;;;;5017194;28;8797;-63
2022/05/18 07:22:46;;;;;;;;;4.00;3.00;;;;;;;;5017158;28;8776;-64
2022/05/18 07:25:12;;;;;;;;;4.80;4.00;;;;;;;;5016004;28;8779;-63
2022/05/18 07:27:41;;;;;;;;;4.00;4.00;;;;;;;;5017067;28;8822;-64
2022/05/18 07:30:08;;;;;;;;;5.00;3.80;;;;;;;;5016026;28;8805;-63
2022/05/18 07:32:36;;;;;;;;;4.60;4.60;;;;;;;;5016890;28;8872;-63
2022/05/18 07:35:04;;;;;;;;;6.60;4.80;;;;;;;;5032417;28;8813;-64
2022/05/18 07:37:30;;;;;;;;;5.60;4.80;;;;;;;;5015939;28;8901;-63
2022/05/18 07:39:57;;;;;;;;;3.20;2.40;;;;;;;;5032132;28;8727;-63
2022/05/18 07:42:24;;;;;;;;;4.60;4.60;;;;;;;;5012783;28;8761;-63
2022/05/18 07:44:51;;;;;;;;;3.00;3.00;;;;;;;;4998111;28;8752;-63
2022/05/18 07:47:18;;;;;;;;;4.80;4.00;;;;;;;;5013412;28;8757;-63
2022/05/18 07:49:45;;;;;;;;;5.00;5.00;;;;;;;;4996772;28;8860;-63
2022/05/18 07:52:12;;;;;;;;;4.40;4.40;;;;;;;;4997115;28;8762;-63
2022/05/18 07:54:38;;;;;;;;;5.80;5.80;;;;;;;;4996756;28;8761;-63
2022/05/18 07:57:08;;;;;;;;;6.40;6.40;;;;;;;;5015576;28;8755;-62
2022/05/18 07:59:35;;;;;;;;;7.60;6.20;;;;;;;;5017151;28;8770;-63
2022/05/18 08:02:02;;;;;;;;;5.20;4.00;;;;;;;;5017354;28;8739;-63
2022/05/18 08:04:29;;;;;;;;;7.20;7.20;;;;;;;;5031800;28;8731;-63
2022/05/18 08:06:55;;;;;;;;;9.60;7.80;;;;;;;;5017769;28;8745;-63
2022/05/18 08:09:22;;;;;;;;;10.00;10.00;;;;;;;;5031648;28;8742;-63
2022/05/18 08:15:07;;;;;;;;;7.40;7.40;;;;;;;;4985852;28;8981;-64
2022/05/18 08:17:34;;;;;;;;;4.00;3.80;;;;;;;;4996987;28;8746;-64
2022/05/18 08:20:04;;;;;;;;;2.40;2.40;;;;;;;;4998647;28;8793;-63
2022/05/18 08:22:30;;;;;;;;;3.80;3.00;;;;;;;;5000857;28;8842;-63
2022/05/18 08:24:57;;;;;;;;;4.80;4.80;;;;;;;;5003528;28;8773;-64
2022/05/18 08:27:24;;;;;;;;;3.00;3.00;;;;;;;;5020753;28;8785;-63
2022/05/18 08:29:51;;;;;;;;;6.20;4.00;;;;;;;;5021266;28;8731;-63
2022/05/18 08:32:17;;;;;;;;;4.60;3.40;;;;;;;;5021338;28;8793;-63
2022/05/18 08:34:44;;;;;;;;;2.80;2.80;;;;;;;;5021254;28;8747;-63
2022/05/18 08:37:11;;;;;;;;;2.80;2.80;;;;;;;;5022022;28;8715;-63
2022/05/18 08:39:38;;;;;;;;;5.00;4.20;;;;;;;;5020900;28;9529;-63
2022/05/18 08:42:05;;;;;;;;;2.80;2.80;;;;;;;;5003053;28;8753;-63
2022/05/18 08:44:34;;;;;;;;;4.40;4.40;;;;;;;;5016243;28;8784;-63
2022/05/18 08:47:05;;;;;;;;;5.40;4.00;;;;;;;;4993787;28;8755;-63
2022/05/18 08:49:42;;;;;;;;;4.00;4.00;;;;;;;;5011239;28;8764;-63
2022/05/18 08:52:27;;;;;;;;;3.20;3.20;;;;;;;;5001954;28;8780;-63
2022/05/18 08:54:54;;;;;;;;;2.20;2.20;;;;;;;;5002487;28;8741;-63
2022/05/18 08:57:31;;;;;;;;;3.00;3.00;;;;;;;;5026785;28;8765;-63
2022/05/18 08:59:58;;;;;;;;;3.00;1.80;;;;;;;;5026342;28;8789;-64
2022/05/18 09:02:27;;;;;;;;;4.20;2.80;;;;;;;;5031784;28;8777;-63
2022/05/18 09:04:55;;;;;;;;;2.00;2.00;;;;;;;;5000880;28;8769;-64
2022/05/18 09:07:24;;;;;;;;;2.40;2.40;;;;;;;;5032036;28;9411;-63
2022/05/18 09:10:12;;;;;;;;;3.00;3.00;;;;;;;;5035424;28;8743;-64
2022/05/18 09:12:40;;;;;;;;;2.00;2.00;;;;;;;;4999448;28;8800;-64
2022/05/18 09:15:10;;;;;;;;;1.80;0.80;;;;;;;;4999111;28;8757;-64
2022/05/18 09:17:37;;;;;;;;;2.60;1.60;;;;;;;;5000351;28;8804;-64
2022/05/18 09:20:12;;;;;;;;;2.20;2.20;;;;;;;;4999197;28;8847;-64
2022/05/18 09:22:56;;;;;;;;;2.00;2.00;;;;;;;;5000835;28;8745;-63
2022/05/18 09:25:27;;;;;;;;;2.00;2.00;;;;;;;;5005326;28;8739;-64
2022/05/18 09:28:01;;;;;;;;;1.20;1.20;;;;;;;;5039383;28;9430;-64
2022/05/18 09:30:30;;;;;;;;;2.20;2.20;;;;;;;;5039502;28;8827;-64
2022/05/18 09:33:19;;;;;;;;;2.80;2.00;;;;;;;;5040070;28;8765;-64
2022/05/18 09:35:46;;;;;;;;;2.40;2.00;;;;;;;;5038618;28;8784;-64
2022/05/18 09:38:31;;;;;;;;;3.40;3.40;;;;;;;;5055150;28;9409;-64
2022/05/18 09:40:58;;;;;;;;;5.00;4.40;;;;;;;;5026352;28;8777;-64
2022/05/18 09:43:27;;;;;;;;;4.80;4.80;;;;;;;;5031603;28;9519;-62
2022/05/18 09:46:00;;;;;;;;;3.40;3.40;;;;;;;;5000750;28;8908;-64
2022/05/18 09:48:34;;;;;;;;;3.20;3.00;;;;;;;;5000127;28;8773;-63
2022/05/18 09:51:01;;;;;;;;;3.00;2.00;;;;;;;;5031316;28;8799;-64
2022/05/18 09:53:28;;;;;;;;;3.00;3.00;;;;;;;;5031135;28;8769;-64
2022/05/18 09:55:55;;;;;;;;;3.60;3.60;;;;;;;;4991454;28;8822;-64
2022/05/18 09:58:31;;;;;;;;;4.60;3.00;;;;;;;;4981395;28;8788;-63
2022/05/18 10:09:26;;;;;;;;;3.00;3.00;;;;;;;;5004197;28;8792;-64
2022/05/18 10:11:53;;;;;;;;;5.00;5.00;;;;;;;;5035905;28;8784;-64
2022/05/18 10:14:25;;;;;;;;;4.00;2.80;;;;;;;;5036941;28;8769;-63
2022/05/18 10:17:12;;;;;;;;;4.00;3.60;;;;;;;;5039328;28;8766;-64
2022/05/18 10:20:06;;;;;;;;;3.80;3.80;;;;;;;;5039098;28;8799;-64
2022/05/18 10:22:35;;;;;;;;;3.80;2.40;;;;;;;;5035891;28;8839;-63
2022/05/18 10:25:09;;;;;;;;;2.80;2.80;;;;;;;;5039271;28;8777;-64
2022/05/18 10:27:37;;;;;;;;;2.80;2.00;;;;;;;;5038810;28;8863;-64
2022/05/18 10:30:04;;;;;;;;;5.60;4.60;;;;;;;;5020687;28;8793;-64
2022/05/18 10:32:31;;;;;;;;;4.00;4.00;;;;;;;;5038264;28;8749;-63
2022/05/18 10:34:58;;;;;;;;;3.00;3.00;;;;;;;;5004370;28;8785;-64
2022/05/18 10:37:35;;;;;;;;;3.80;1.20;;;;;;;;5020609;28;8781;-63
2022/05/18 10:40:12;;;;;;;;;4.60;4.00;;;;;;;;5038924;28;8773;-64
2022/05/18 10:42:47;;;;;;;;;3.60;3.60;;;;;;;;5038260;28;9523;-64
2022/05/18 10:45:22;;;;;;;;;4.80;3.60;;;;;;;;5038438;28;9551;-64
2022/05/18 10:47:50;;;;;;;;;6.00;4.00;;;;;;;;5037197;28;9438;-64
2022/05/18 10:50:23;;;;;;;;;4.20;4.20;;;;;;;;5036686;28;9382;-63
2022/05/18 10:52:50;;;;;;;;;4.00;4.00;;;;;;;;5038091;28;9411;-64
2022/05/18 10:55:18;;;;;;;;;5.40;4.80;;;;;;;;5020666;28;8749;-64
2022/05/18 10:58:13;;;;;;;;;6.20;4.40;;;;;;;;5037699;28;8789;-64
2022/05/18 11:01:00;;;;;;;;;6.60;5.00;;;;;;;;5022740;28;8829;-64
2022/05/18 11:03:36;;;;;;;;;5.00;4.00;;;;;;;;5020673;28;8884;-64
2022/05/18 11:06:05;;;;;;;;;2.80;2.80;;;;;;;;5020597;28;8789;-64
2022/05/18 11:08:32;;;;;;;;;3.80;3.60;;;;;;;;5003654;28;8793;-64
2022/05/18 11:11:02;;;;;;;;;4.60;4.60;;;;;;;;5019939;28;9030;-64
2022/05/18 11:13:42;;;;;;;;;5.00;5.00;;;;;;;;5037278;28;8761;-63
2022/05/18 11:16:20;;;;;;;;;5.60;5.60;;;;;;;;5038566;28;9469;-64
2022/05/18 11:18:52;;;;;;;;;5.00;4.60;;;;;;;;5036763;28;8812;-64
2022/05/18 11:21:34;;;;;;;;;6.20;5.00;;;;;;;;5020313;28;8891;-64
2022/05/18 11:24:01;;;;;;;;;4.80;4.80;;;;;;;;5037774;28;8774;-64
2022/05/18 11:26:46;;;;;;;;;9.00;7.00;;;;;;;;5036999;28;8800;-64
2022/05/18 11:29:45;;;;;;;;;8.60;6.00;;;;;;;;5027324;28;8800;-64
2022/05/18 11:32:21;;;;;;;;;7.40;7.00;;;;;;;;5004678;28;8765;-64
2022/05/18 11:34:57;;;;;;;;;5.80;5.80;;;;;;;;5020204;28;8753;-64
2022/05/18 11:37:42;;;;;;;;;8.80;5.80;;;;;;;;5037704;28;8745;-64
2022/05/18 11:40:11;;;;;;;;;7.20;5.40;;;;;;;;5017889;28;8754;-64
2022/05/18 11:42:41;;;;;;;;;6.80;5.20;;;;;;;;5018426;28;8794;-64
2022/05/18 11:45:28;;;;;;;;;8.40;6.40;;;;;;;;5017088;28;9444;-64
2022/05/18 11:47:54;;;;;;;;;8.80;7.00;;;;;;;;4982399;28;8893;-64
2022/05/18 11:50:21;;;;;;;;;8.80;6.40;;;;;;;;5017156;28;8771;-63
2022/05/18 11:53:17;;;;;;;;;7.00;6.00;;;;;;;;5016868;28;8739;-64
2022/05/18 11:55:47;;;;;;;;;8.00;5.60;;;;;;;;4962033;28;8789;-64
2022/05/18 11:58:41;;;;;;;;;6.40;6.40;;;;;;;;4998057;28;8742;-64
2022/05/18 12:01:09;;;;;;;;;6.20;5.80;;;;;;;;4996785;28;8821;-64
2022/05/18 12:03:39;;;;;;;;;7.80;6.00;;;;;;;;4996153;28;8789;-64
2022/05/18 12:06:14;;;;;;;;;6.60;6.00;;;;;;;;4997450;28;9514;-64
2022/05/18 12:08:41;;;;;;;;;5.60;5.60;;;;;;;;4996175;28;8773;-64
2022/05/18 12:11:08;;;;;;;;;8.20;5.80;;;;;;;;5007338;28;8790;-64
2022/05/18 12:13:34;;;;;;;;;3.40;3.40;;;;;;;;5016339;28;8724;-64
2022/05/18 12:16:19;;;;;;;;;6.80;5.00;;;;;;;;5017612;28;8739;-64
2022/05/18 12:19:13;;;;;;;;;5.80;4.00;;;;;;;;5017142;28;8845;-64
2022/05/18 12:21:42;;;;;;;;;6.00;6.00;;;;;;;;5012857;28;8763;-64
2022/05/18 12:24:08;;;;;;;;;7.00;5.60;;;;;;;;5015441;28;8790;-64
2022/05/18 12:26:39;;;;;;;;;9.00;8.00;;;;;;;;5015309;28;8783;-64
2022/05/18 12:29:06;;;;;;;;;8.60;8.00;;;;;;;;5015265;28;9447;-64
2022/05/18 12:31:33;;;;;;;;;13.80;12.00;;;;;;;;5015007;28;8751;-63
2022/05/18 12:34:04;;;;;;;;;16.60;14.00;;;;;;;;5016144;28;8817;-64
2022/05/18 12:36:41;;;;;;;;;28.40;21.20;;;;;;;;5015253;28;8758;-64
2022/05/18 12:39:13;;;;;;;;;27.20;21.80;;;;;;;;5016584;28;8775;-64
2022/05/18 12:41:42;;;;;;;;;20.25;17.50;;;;;;;;5016253;28;8767;-64
2022/05/18 12:44:13;;;;;;;;;17.20;15.00;;;;;;;;4999170;28;8957;-64
2022/05/18 12:46:49;;;;;;;;;19.60;13.40;;;;;;;;5014956;28;8743;-64
2022/05/18 12:49:34;;;;;;;;;17.60;16.00;;;;;;;;5015918;28;8803;-64
2022/05/18 12:52:03;;;;;;;;;17.00;15.60;;;;;;;;5017199;28;8854;-64
2022/05/18 12:54:56;;;;;;;;;15.00;14.20;;;;;;;;5014754;28;8799;-64
2022/05/18 12:57:22;;;;;;;;;16.80;13.20;;;;;;;;4994959;28;8863;-64
2022/05/18 13:00:10;;;;;;;;;18.40;13.60;;;;;;;;4996947;28;9120;-64
2022/05/18 13:02:43;;;;;;;;;16.60;15.00;;;;;;;;5014372;28;8815;-64
2022/05/18 13:05:25;;;;;;;;;22.00;20.80;;;;;;;;5016768;28;8791;-64
2022/05/18 13:07:52;;;;;;;;;25.00;23.00;;;;;;;;5020332;28;8788;-64
2022/05/18 13:10:20;;;;;;;;;18.75;16.50;;;;;;;;5023631;28;8758;-64
2022/05/18 13:12:47;;;;;;;;;21.50;17.00;;;;;;;;5022010;28;8761;-64
2022/05/18 13:15:32;;;;;;;;;24.75;22.50;;;;;;;;5039402;28;8749;-64
2022/05/18 13:18:04;;;;;;;;;18.40;16.60;;;;;;;;5039702;28;8788;-64
2022/05/18 13:20:40;;;;;;;;;20.50;19.00;;;;;;;;5039301;28;8773;-63
2022/05/18 13:23:10;;;;;;;;;18.50;18.25;;;;;;;;5059585;28;8873;-64
2022/05/18 13:25:37;;;;;;;;;21.00;19.20;;;;;;;;5034004;28;8819;-63
2022/05/18 13:28:05;;;;;;;;;18.40;15.40;;;;;;;;5002579;28;8782;-64
2022/05/18 13:30:34;;;;;;;;;18.40;16.20;;;;;;;;5019168;28;9529;-64
2022/05/18 13:33:02;;;;;;;;;18.20;13.40;;;;;;;;5001929;28;8828;-64
2022/05/18 13:35:29;;;;;;;;;15.20;14.20;;;;;;;;5034232;28;8817;-64
2022/05/18 13:38:02;;;;;;;;;13.60;13.60;;;;;;;;5002013;28;8790;-64
2022/05/18 13:40:29;;;;;;;;;17.60;15.20;;;;;;;;5018852;28;8755;-63
2022/05/18 13:42:57;;;;;;;;;12.00;12.00;;;;;;;;5019825;28;8752;-64
2022/05/18 13:45:24;;;;;;;;;14.80;14.60;;;;;;;;5033969;28;8865;-64
2022/05/18 13:47:52;;;;;;;;;16.20;14.40;;;;;;;;5034086;28;8828;-64
2022/05/18 13:50:22;;;;;;;;;21.80;19.40;;;;;;;;5034142;28;8747;-64
2022/05/18 13:52:48;;;;;;;;;15.60;12.60;;;;;;;;5019733;28;9389;-64
2022/05/18 13:55:15;;;;;;;;;19.20;14.60;;;;;;;;5015191;28;8758;-64
2022/05/18 13:57:46;;;;;;;;;17.80;16.00;;;;;;;;4999435;28;8807;-64
2022/05/18 14:00:34;;;;;;;;;17.80;16.00;;;;;;;;4999613;28;8742;-64
2022/05/18 14:03:01;;;;;;;;;20.00;16.60;;;;;;;;4978303;28;8791;-64
2022/05/18 14:05:32;;;;;;;;;15.80;15.60;;;;;;;;4979334;28;8764;-63
2022/05/18 14:07:59;;;;;;;;;13.60;12.00;;;;;;;;4979466;28;8796;-64
2022/05/18 14:10:28;;;;;;;;;18.20;17.40;;;;;;;;4983620;28;8796;-63
2022/05/18 14:13:04;;;;;;;;;20.20;17.80;;;;;;;;5031151;28;8752;-64
2022/05/18 14:15:31;;;;;;;;;18.00;16.60;;;;;;;;5029991;28;8812;-64
2022/05/18 14:17:58;;;;;;;;;18.80;18.20;;;;;;;;5029313;28;8793;-64
2022/05/18 14:20:30;;;;;;;;;17.40;15.60;;;;;;;;5030392;28;8785;-63
2022/05/18 14:22:59;;;;;;;;;19.80;17.60;;;;;;;;5030389;28;8734;-64
2022/05/18 14:25:28;;;;;;;;;16.60;14.00;;;;;;;;4993678;28;8769;-63
2022/05/18 14:27:55;;;;;;;;;18.60;16.40;;;;;;;;4979804;28;8902;-64
2022/05/18 14:30:23;;;;;;;;;18.40;17.00;;;;;;;;4997556;28;8842;-63
2022/05/18 14:32:51;;;;;;;;;16.60;12.80;;;;;;;;4977933;28;8961;-64
2022/05/18 14:35:19;;;;;;;;;14.80;14.40;;;;;;;;4977807;28;8768;-63
2022/05/18 14:37:55;;;;;;;;;15.40;14.00;;;;;;;;4978026;28;8822;-64
2022/05/18 14:40:22;;;;;;;;;17.20;16.00;;;;;;;;4982113;28;8766;-63
2022/05/18 14:42:53;;;;;;;;;19.20;17.00;;;;;;;;5037885;28;8752;-64
2022/05/18 14:45:19;;;;;;;;;14.20;14.20;;;;;;;;5052921;28;8768;-63
2022/05/18 14:47:47;;;;;;;;;16.40;15.60;;;;;;;;5037901;28;8845;-64
2022/05/18 14:50:30;;;;;;;;;14.40;12.60;;;;;;;;5037721;28;8772;-64
2022/05/18 14:53:00;;;;;;;;;17.00;13.80;;;;;;;;5037686;28;8827;-64
2022/05/18 14:55:28;;;;;;;;;15.40;15.40;;;;;;;;5030929;28;8755;-63
2022/05/18 14:57:55;;;;;;;;;17.00;16.20;;;;;;;;5030077;28;8778;-64
2022/05/18 15:00:24;;;;;;;;;16.00;14.80;;;;;;;;4998109;28;8796;-63
2022/05/18 15:02:50;;;;;;;;;15.40;14.40;;;;;;;;5029139;28;9458;-64
2022/05/18 15:05:24;;;;;;;;;15.60;15.00;;;;;;;;5021938;28;8878;-63
2022/05/18 15:07:53;;;;;;;;;16.00;14.40;;;;;;;;4998041;28;8784;-64
2022/05/18 15:10:35;;;;;;;;;16.20;13.40;;;;;;;;5026340;28;8764;-62
2022/05/18 15:13:13;;;;;;;;;16.20;16.20;;;;;;;;4998425;28;8888;-64
2022/05/18 15:15:39;;;;;;;;;17.40;16.20;;;;;;;;4979769;28;8853;-63
2022/05/18 15:18:28;;;;;;;;;19.20;17.00;;;;;;;;4978616;28;8926;-64
2022/05/18 15:20:56;;;;;;;;;18.40;14.60;;;;;;;;5001149;28;8752;-64